Conway, MI (49722)

8:43 AM EST on November 28, 2014 (GMT -0500)
Markspm | Change Station
CLOSE
Current Station
Personal Weather Station
Location: Harbor Springs, MI
Elevation: 745 ft
Nearby Weather Stations

Elev 745 ft 45.43 °N, 84.91 °W | Updated 7 minutes ago

Light Snow
Light Snow
17.1 °F
Feels Like 17 °F
N
0.0
Wind Variable Wind from North
Gusts 0.0 mph

Today
High -- | Low -- °F
--% Chance of Precip.
Yesterday
High -- | Low -- °F
Precip. -- in
7:55 AM 4:59 PM
Waxing Crescent, 40% visible
Pressure 30.21 in
Visibility 7.0 miles
Clouds Scattered Clouds 1800 ft
Mostly Cloudy 2800 ft
Overcast 3900 ft
Windchill 17 °F
Dew Point 16 °F
Humidity 93%
Rainfall 0.00 in
Snow Depth Not available.
UV 0 out of 12
Pollen .10 out of 12
Air Quality Not available.
Flu Activity Not available.
METAR KMGN 281335Z AUTO 17003KT 7SM -SN SCT018 BKN028 OVC039 M07/M09 A3021 RMK AO2 T10741091

More Conditions Fewer Conditions

Pressure 30.21 in
Visibility 7.0 miles
Clouds Scattered Clouds 1800 ft
Mostly Cloudy 2800 ft
Overcast 3900 ft
Windchill 17 °F
Dew Point 16 °F
Humidity 93%
Rainfall 0.00 in
Snow Depth Not available.
UV 0 out of 12
Pollen .10 out of 12
Air Quality Not available.
Flu Activity Not available.
METAR KMGN 281335Z AUTO 17003KT 7SM -SN SCT018 BKN028 OVC039 M07/M09 A3021 RMK AO2 T10741091

More Conditions Fewer Conditions

Nowcast | as of 8:00 am EST on November 28, 2014

At 9 am...snow showers. Temperature 20. Southwest winds 7 mph. At 11 am...snow showers. Temperature 22. Southwest winds 8 mph. At 1 PM...snow likely. Temperature 24. Southwest winds 8 mph. At 3 PM...snow likely. Temperature 25. South winds 8 mph.

×

10-Day Weather Forecast

Almanac

Astronomy

Nov. 28, 2014 Rise Set
Actual Time
Civil Twilight
Nautical Twilight
Astronomical Twilight
Moon
Length of Visible Light
Length of Day
Tomorrow will be .
, % of the Moon is Illuminated

Today's Extremes

State Highs State Lows

Community

WunderPhotos

Upload Photos

1,774,210 photos uploaded!

WunderBlogs® & News

Nearby

Air Quality

  Air Quality AQ Index Pollutant
Not available.

Snow Depth

Station Depth Elevation

Earthquake Activity

City Distance Mag. Time & Date
Minimum magnitude displayed is 2.5.

Coastal Water Temperatures

Place Temperature

Nearby Weather Stations